sensor_id;sensor_type;location;lat;lon;timestamp;P1;durP1;ratioP1;P2;durP2;ratioP2
47860;SDS011;33620;52.340;5.984;2023-01-29T00:02:01;33.67;;;16.92;;
47860;SDS011;33620;52.340;5.984;2023-01-29T00:04:28;35.25;;;18.00;;
47860;SDS011;33620;52.340;5.984;2023-01-29T00:06:54;36.08;;;18.17;;
47860;SDS011;33620;52.340;5.984;2023-01-29T00:09:19;33.85;;;18.13;;
47860;SDS011;33620;52.340;5.984;2023-01-29T00:11:46;34.67;;;16.95;;
47860;SDS011;33620;52.340;5.984;2023-01-29T00:14:11;34.28;;;17.05;;
47860;SDS011;33620;52.340;5.984;2023-01-29T00:16:37;35.88;;;17.95;;
47860;SDS011;33620;52.340;5.984;2023-01-29T00:19:03;35.28;;;17.20;;
47860;SDS011;33620;52.340;5.984;2023-01-29T00:21:28;32.05;;;16.85;;
47860;SDS011;33620;52.340;5.984;2023-01-29T00:23:57;31.45;;;16.52;;
47860;SDS011;33620;52.340;5.984;2023-01-29T00:26:23;33.33;;;17.08;;
47860;SDS011;33620;52.340;5.984;2023-01-29T00:28:49;31.63;;;17.75;;
47860;SDS011;33620;52.340;5.984;2023-01-29T00:31:16;33.72;;;16.90;;
47860;SDS011;33620;52.340;5.984;2023-01-29T00:33:44;34.88;;;17.63;;
47860;SDS011;33620;52.340;5.984;2023-01-29T00:36:10;36.95;;;19.08;;
47860;SDS011;33620;52.340;5.984;2023-01-29T00:38:37;35.40;;;17.90;;
47860;SDS011;33620;52.340;5.984;2023-01-29T00:41:06;35.38;;;17.77;;
47860;SDS011;33620;52.340;5.984;2023-01-29T00:43:58;34.67;;;16.67;;
47860;SDS011;33620;52.340;5.984;2023-01-29T00:46:44;34.90;;;17.02;;
47860;SDS011;33620;52.340;5.984;2023-01-29T00:49:09;36.13;;;18.17;;
47860;SDS011;33620;52.340;5.984;2023-01-29T00:51:36;39.92;;;19.90;;
47860;SDS011;33620;52.340;5.984;2023-01-29T00:54:03;37.15;;;18.60;;
47860;SDS011;33620;52.340;5.984;2023-01-29T00:56:31;36.58;;;19.40;;
47860;SDS011;33620;52.340;5.984;2023-01-29T00:58:57;34.92;;;17.63;;
47860;SDS011;33620;52.340;5.984;2023-01-29T01:01:22;34.25;;;17.77;;
47860;SDS011;33620;52.340;5.984;2023-01-29T01:04:07;37.55;;;19.35;;
47860;SDS011;33620;52.340;5.984;2023-01-29T01:06:35;34.00;;;18.30;;
47860;SDS011;33620;52.340;5.984;2023-01-29T01:09:01;39.17;;;19.42;;
47860;SDS011;33620;52.340;5.984;2023-01-29T01:11:45;37.60;;;18.88;;
47860;SDS011;33620;52.340;5.984;2023-01-29T01:14:11;37.55;;;19.13;;
47860;SDS011;33620;52.340;5.984;2023-01-29T01:16:36;39.33;;;20.02;;
47860;SDS011;33620;52.340;5.984;2023-01-29T01:19:02;37.78;;;19.42;;
47860;SDS011;33620;52.340;5.984;2023-01-29T01:21:28;35.75;;;19.33;;
47860;SDS011;33620;52.340;5.984;2023-01-29T01:23:53;38.70;;;20.27;;
47860;SDS011;33620;52.340;5.984;2023-01-29T01:26:19;38.35;;;18.42;;
47860;SDS011;33620;52.340;5.984;2023-01-29T01:28:44;36.45;;;18.77;;
47860;SDS011;33620;52.340;5.984;2023-01-29T01:31:10;35.28;;;20.15;;
47860;SDS011;33620;52.340;5.984;2023-01-29T01:33:36;37.42;;;20.65;;
47860;SDS011;33620;52.340;5.984;2023-01-29T01:36:02;41.75;;;20.60;;
47860;SDS011;33620;52.340;5.984;2023-01-29T01:38:29;36.85;;;20.00;;
47860;SDS011;33620;52.340;5.984;2023-01-29T01:40:54;37.47;;;20.63;;
47860;SDS011;33620;52.340;5.984;2023-01-29T01:43:20;36.45;;;20.48;;
47860;SDS011;33620;52.340;5.984;2023-01-29T01:45:45;39.70;;;21.25;;
47860;SDS011;33620;52.340;5.984;2023-01-29T01:50:57;38.33;;;20.25;;
47860;SDS011;33620;52.340;5.984;2023-01-29T01:53:31;40.60;;;20.45;;
47860;SDS011;33620;52.340;5.984;2023-01-29T01:56:04;40.05;;;20.95;;
47860;SDS011;33620;52.340;5.984;2023-01-29T01:58:34;39.13;;;20.80;;
47860;SDS011;33620;52.340;5.984;2023-01-29T02:01:03;38.33;;;21.00;;
47860;SDS011;33620;52.340;5.984;2023-01-29T02:03:32;41.88;;;21.25;;
47860;SDS011;33620;52.340;5.984;2023-01-29T02:06:20;39.22;;;21.33;;
47860;SDS011;33620;52.340;5.984;2023-01-29T02:09:05;40.58;;;22.05;;
47860;SDS011;33620;52.340;5.984;2023-01-29T02:11:56;39.88;;;21.25;;
47860;SDS011;33620;52.340;5.984;2023-01-29T02:14:21;41.88;;;21.20;;
47860;SDS011;33620;52.340;5.984;2023-01-29T02:16:47;40.65;;;22.70;;
47860;SDS011;33620;52.340;5.984;2023-01-29T02:19:49;38.72;;;21.00;;
47860;SDS011;33620;52.340;5.984;2023-01-29T02:22:35;41.58;;;22.92;;
47860;SDS011;33620;52.340;5.984;2023-01-29T02:25:25;41.22;;;21.67;;
47860;SDS011;33620;52.340;5.984;2023-01-29T02:30:49;42.45;;;22.50;;
47860;SDS011;33620;52.340;5.984;2023-01-29T02:33:34;41.20;;;21.00;;
47860;SDS011;33620;52.340;5.984;2023-01-29T02:41:34;39.30;;;22.40;;
47860;SDS011;33620;52.340;5.984;2023-01-29T02:52:37;36.08;;;20.42;;
47860;SDS011;33620;52.340;5.984;2023-01-29T02:55:09;38.88;;;19.98;;
47860;SDS011;33620;52.340;5.984;2023-01-29T02:57:40;37.85;;;21.40;;
47860;SDS011;33620;52.340;5.984;2023-01-29T03:05:26;38.13;;;21.10;;
47860;SDS011;33620;52.340;5.984;2023-01-29T03:08:15;37.60;;;20.83;;
47860;SDS011;33620;52.340;5.984;2023-01-29T03:10:52;39.78;;;22.13;;
47860;SDS011;33620;52.340;5.984;2023-01-29T03:13:27;37.33;;;20.63;;
47860;SDS011;33620;52.340;5.984;2023-01-29T03:16:11;41.22;;;21.23;;
47860;SDS011;33620;52.340;5.984;2023-01-29T03:18:46;39.38;;;22.30;;
47860;SDS011;33620;52.340;5.984;2023-01-29T03:21:20;37.45;;;21.00;;
47860;SDS011;33620;52.340;5.984;2023-01-29T03:24:11;37.70;;;20.38;;
47860;SDS011;33620;52.340;5.984;2023-01-29T03:26:57;39.05;;;21.55;;
47860;SDS011;33620;52.340;5.984;2023-01-29T03:29:47;36.65;;;19.95;;
47860;SDS011;33620;52.340;5.984;2023-01-29T03:32:32;37.80;;;20.38;;
47860;SDS011;33620;52.340;5.984;2023-01-29T03:35:01;39.03;;;21.08;;
47860;SDS011;33620;52.340;5.984;2023-01-29T03:37:34;36.90;;;20.33;;
47860;SDS011;33620;52.340;5.984;2023-01-29T03:40:04;38.28;;;20.70;;
47860;SDS011;33620;52.340;5.984;2023-01-29T03:50:30;36.53;;;20.02;;
47860;SDS011;33620;52.340;5.984;2023-01-29T03:53:27;36.28;;;20.67;;
47860;SDS011;33620;52.340;5.984;2023-01-29T03:59:13;39.03;;;21.52;;
47860;SDS011;33620;52.340;5.984;2023-01-29T04:04:14;35.17;;;20.35;;
47860;SDS011;33620;52.340;5.984;2023-01-29T04:06:44;38.17;;;20.48;;
47860;SDS011;33620;52.340;5.984;2023-01-29T04:09:13;35.35;;;21.20;;
47860;SDS011;33620;52.340;5.984;2023-01-29T04:11:47;39.47;;;21.27;;
47860;SDS011;33620;52.340;5.984;2023-01-29T04:14:16;39.30;;;21.00;;
47860;SDS011;33620;52.340;5.984;2023-01-29T04:16:43;36.65;;;20.23;;
47860;SDS011;33620;52.340;5.984;2023-01-29T04:19:12;37.60;;;20.85;;
47860;SDS011;33620;52.340;5.984;2023-01-29T04:21:38;37.00;;;21.00;;
47860;SDS011;33620;52.340;5.984;2023-01-29T04:24:04;35.83;;;20.15;;
47860;SDS011;33620;52.340;5.984;2023-01-29T04:30:21;37.38;;;19.40;;
47860;SDS011;33620;52.340;5.984;2023-01-29T04:41:01;38.78;;;19.75;;
47860;SDS011;33620;52.340;5.984;2023-01-29T04:43:41;36.83;;;20.30;;
47860;SDS011;33620;52.340;5.984;2023-01-29T04:46:34;36.40;;;19.00;;
47860;SDS011;33620;52.340;5.984;2023-01-29T04:52:07;39.72;;;21.27;;
47860;SDS011;33620;52.340;5.984;2023-01-29T04:59:43;38.70;;;20.10;;
47860;SDS011;33620;52.340;5.984;2023-01-29T05:02:12;38.85;;;21.33;;
47860;SDS011;33620;52.340;5.984;2023-01-29T05:04:38;39.50;;;20.95;;
47860;SDS011;33620;52.340;5.984;2023-01-29T05:07:09;38.67;;;21.33;;
47860;SDS011;33620;52.340;5.984;2023-01-29T05:09:37;41.38;;;21.15;;
47860;SDS011;33620;52.340;5.984;2023-01-29T05:12:04;39.58;;;22.45;;
47860;SDS011;33620;52.340;5.984;2023-01-29T05:14:33;37.08;;;20.83;;
47860;SDS011;33620;52.340;5.984;2023-01-29T05:17:00;41.80;;;21.48;;
47860;SDS011;33620;52.340;5.984;2023-01-29T05:19:29;37.10;;;21.58;;
47860;SDS011;33620;52.340;5.984;2023-01-29T05:21:55;39.50;;;21.55;;
47860;SDS011;33620;52.340;5.984;2023-01-29T05:24:22;37.53;;;20.33;;
47860;SDS011;33620;52.340;5.984;2023-01-29T05:26:50;42.38;;;21.65;;
47860;SDS011;33620;52.340;5.984;2023-01-29T05:29:35;39.10;;;22.13;;
47860;SDS011;33620;52.340;5.984;2023-01-29T05:32:01;40.28;;;21.75;;
47860;SDS011;33620;52.340;5.984;2023-01-29T05:34:28;42.88;;;22.67;;
47860;SDS011;33620;52.340;5.984;2023-01-29T05:36:53;41.15;;;22.05;;
47860;SDS011;33620;52.340;5.984;2023-01-29T05:39:19;40.95;;;21.77;;
47860;SDS011;33620;52.340;5.984;2023-01-29T05:41:44;42.22;;;23.27;;
47860;SDS011;33620;52.340;5.984;2023-01-29T05:44:10;40.72;;;22.20;;
47860;SDS011;33620;52.340;5.984;2023-01-29T05:46:36;41.40;;;22.25;;
47860;SDS011;33620;52.340;5.984;2023-01-29T05:49:02;43.83;;;23.55;;
47860;SDS011;33620;52.340;5.984;2023-01-29T05:51:28;41.45;;;22.23;;
47860;SDS011;33620;52.340;5.984;2023-01-29T05:53:53;43.75;;;24.67;;
47860;SDS011;33620;52.340;5.984;2023-01-29T05:56:19;41.78;;;23.98;;
47860;SDS011;33620;52.340;5.984;2023-01-29T05:58:44;40.45;;;23.27;;
47860;SDS011;33620;52.340;5.984;2023-01-29T06:01:10;44.15;;;23.98;;
47860;SDS011;33620;52.340;5.984;2023-01-29T06:03:38;39.70;;;22.45;;
47860;SDS011;33620;52.340;5.984;2023-01-29T06:06:03;45.05;;;23.73;;
47860;SDS011;33620;52.340;5.984;2023-01-29T06:08:29;45.05;;;24.48;;
47860;SDS011;33620;52.340;5.984;2023-01-29T06:10:54;39.45;;;23.00;;
47860;SDS011;33620;52.340;5.984;2023-01-29T06:13:20;42.47;;;23.60;;
47860;SDS011;33620;52.340;5.984;2023-01-29T06:15:45;41.78;;;24.38;;
47860;SDS011;33620;52.340;5.984;2023-01-29T06:18:11;44.03;;;23.77;;
47860;SDS011;33620;52.340;5.984;2023-01-29T06:20:36;45.40;;;23.50;;
47860;SDS011;33620;52.340;5.984;2023-01-29T06:23:01;41.47;;;23.33;;
47860;SDS011;33620;52.340;5.984;2023-01-29T06:25:27;42.58;;;24.10;;
47860;SDS011;33620;52.340;5.984;2023-01-29T06:27:52;44.92;;;24.65;;
47860;SDS011;33620;52.340;5.984;2023-01-29T06:30:18;44.92;;;24.65;;
47860;SDS011;33620;52.340;5.984;2023-01-29T06:32:43;43.33;;;24.02;;
47860;SDS011;33620;52.340;5.984;2023-01-29T06:35:09;43.35;;;25.02;;
47860;SDS011;33620;52.340;5.984;2023-01-29T06:37:34;47.65;;;24.63;;
47860;SDS011;33620;52.340;5.984;2023-01-29T06:40:00;40.58;;;23.08;;
47860;SDS011;33620;52.340;5.984;2023-01-29T06:42:25;45.35;;;25.38;;
47860;SDS011;33620;52.340;5.984;2023-01-29T06:44:55;44.42;;;25.77;;
47860;SDS011;33620;52.340;5.984;2023-01-29T06:47:21;45.80;;;24.90;;
47860;SDS011;33620;52.340;5.984;2023-01-29T06:49:47;42.65;;;23.55;;
47860;SDS011;33620;52.340;5.984;2023-01-29T06:52:13;43.47;;;24.95;;
47860;SDS011;33620;52.340;5.984;2023-01-29T06:54:38;40.63;;;23.15;;
47860;SDS011;33620;52.340;5.984;2023-01-29T06:57:04;43.97;;;23.80;;
47860;SDS011;33620;52.340;5.984;2023-01-29T06:59:29;43.35;;;24.83;;
47860;SDS011;33620;52.340;5.984;2023-01-29T07:01:54;44.13;;;24.90;;
47860;SDS011;33620;52.340;5.984;2023-01-29T07:04:20;44.88;;;24.45;;
47860;SDS011;33620;52.340;5.984;2023-01-29T07:06:46;42.38;;;23.90;;
47860;SDS011;33620;52.340;5.984;2023-01-29T07:09:12;43.08;;;24.45;;
47860;SDS011;33620;52.340;5.984;2023-01-29T07:11:38;44.47;;;25.17;;
47860;SDS011;33620;52.340;5.984;2023-01-29T07:14:04;44.20;;;24.25;;
47860;SDS011;33620;52.340;5.984;2023-01-29T07:16:30;44.50;;;25.27;;
47860;SDS011;33620;52.340;5.984;2023-01-29T07:18:56;42.88;;;24.48;;
47860;SDS011;33620;52.340;5.984;2023-01-29T07:21:21;41.47;;;23.98;;
47860;SDS011;33620;52.340;5.984;2023-01-29T07:23:47;42.13;;;23.90;;
47860;SDS011;33620;52.340;5.984;2023-01-29T07:26:12;42.22;;;24.63;;
47860;SDS011;33620;52.340;5.984;2023-01-29T07:28:38;41.45;;;23.17;;
47860;SDS011;33620;52.340;5.984;2023-01-29T07:31:04;38.45;;;21.98;;
47860;SDS011;33620;52.340;5.984;2023-01-29T07:33:30;39.22;;;23.33;;
47860;SDS011;33620;52.340;5.984;2023-01-29T07:35:56;38.70;;;23.17;;
47860;SDS011;33620;52.340;5.984;2023-01-29T07:38:21;43.03;;;24.73;;
47860;SDS011;33620;52.340;5.984;2023-01-29T07:40:47;41.13;;;24.30;;
47860;SDS011;33620;52.340;5.984;2023-01-29T07:43:13;41.30;;;23.83;;
47860;SDS011;33620;52.340;5.984;2023-01-29T07:45:39;43.42;;;25.00;;
47860;SDS011;33620;52.340;5.984;2023-01-29T07:48:05;41.55;;;23.80;;
47860;SDS011;33620;52.340;5.984;2023-01-29T07:50:34;43.63;;;25.00;;
47860;SDS011;33620;52.340;5.984;2023-01-29T07:52:59;40.45;;;23.30;;
47860;SDS011;33620;52.340;5.984;2023-01-29T07:55:25;40.60;;;22.65;;
47860;SDS011;33620;52.340;5.984;2023-01-29T07:58:09;39.08;;;23.02;;
47860;SDS011;33620;52.340;5.984;2023-01-29T08:00:35;44.95;;;25.83;;
47860;SDS011;33620;52.340;5.984;2023-01-29T08:03:01;41.03;;;23.90;;
47860;SDS011;33620;52.340;5.984;2023-01-29T08:05:30;41.58;;;24.17;;
47860;SDS011;33620;52.340;5.984;2023-01-29T08:07:55;41.38;;;24.67;;
47860;SDS011;33620;52.340;5.984;2023-01-29T08:10:21;39.97;;;23.90;;
47860;SDS011;33620;52.340;5.984;2023-01-29T08:12:46;43.72;;;24.90;;
47860;SDS011;33620;52.340;5.984;2023-01-29T08:15:12;40.13;;;23.30;;
47860;SDS011;33620;52.340;5.984;2023-01-29T08:17:37;39.92;;;22.95;;
47860;SDS011;33620;52.340;5.984;2023-01-29T08:20:04;39.78;;;24.50;;
47860;SDS011;33620;52.340;5.984;2023-01-29T08:22:31;39.58;;;24.00;;
47860;SDS011;33620;52.340;5.984;2023-01-29T08:24:56;41.00;;;24.83;;
47860;SDS011;33620;52.340;5.984;2023-01-29T08:27:22;40.90;;;23.70;;
47860;SDS011;33620;52.340;5.984;2023-01-29T08:29:47;41.13;;;24.58;;
47860;SDS011;33620;52.340;5.984;2023-01-29T08:32:13;46.10;;;27.00;;
47860;SDS011;33620;52.340;5.984;2023-01-29T08:34:38;42.13;;;24.50;;
47860;SDS011;33620;52.340;5.984;2023-01-29T08:37:03;44.60;;;26.90;;
47860;SDS011;33620;52.340;5.984;2023-01-29T08:39:29;39.95;;;22.33;;
47860;SDS011;33620;52.340;5.984;2023-01-29T08:41:55;41.33;;;24.50;;
47860;SDS011;33620;52.340;5.984;2023-01-29T08:44:20;39.58;;;22.30;;
47860;SDS011;33620;52.340;5.984;2023-01-29T08:46:46;43.88;;;25.17;;
47860;SDS011;33620;52.340;5.984;2023-01-29T08:49:11;37.83;;;23.35;;
47860;SDS011;33620;52.340;5.984;2023-01-29T08:51:37;47.38;;;27.73;;
47860;SDS011;33620;52.340;5.984;2023-01-29T08:54:02;42.58;;;24.33;;
47860;SDS011;33620;52.340;5.984;2023-01-29T08:56:27;40.67;;;23.73;;
47860;SDS011;33620;52.340;5.984;2023-01-29T08:58:53;40.55;;;24.05;;
47860;SDS011;33620;52.340;5.984;2023-01-29T09:01:18;37.72;;;23.30;;
47860;SDS011;33620;52.340;5.984;2023-01-29T09:03:43;40.35;;;23.65;;
47860;SDS011;33620;52.340;5.984;2023-01-29T09:06:10;37.67;;;22.35;;
47860;SDS011;33620;52.340;5.984;2023-01-29T09:08:37;42.15;;;23.13;;
47860;SDS011;33620;52.340;5.984;2023-01-29T09:11:03;41.00;;;21.90;;
47860;SDS011;33620;52.340;5.984;2023-01-29T09:13:28;38.63;;;23.27;;
47860;SDS011;33620;52.340;5.984;2023-01-29T09:15:57;41.75;;;23.50;;
47860;SDS011;33620;52.340;5.984;2023-01-29T09:18:24;41.00;;;23.08;;
47860;SDS011;33620;52.340;5.984;2023-01-29T09:20:49;35.35;;;20.10;;
47860;SDS011;33620;52.340;5.984;2023-01-29T09:23:14;38.35;;;21.67;;
47860;SDS011;33620;52.340;5.984;2023-01-29T09:25:41;35.90;;;22.30;;
47860;SDS011;33620;52.340;5.984;2023-01-29T09:28:07;42.53;;;22.48;;
47860;SDS011;33620;52.340;5.984;2023-01-29T09:30:33;37.70;;;21.58;;
47860;SDS011;33620;52.340;5.984;2023-01-29T09:33:01;36.60;;;22.20;;
47860;SDS011;33620;52.340;5.984;2023-01-29T09:35:27;38.53;;;23.40;;
47860;SDS011;33620;52.340;5.984;2023-01-29T09:37:52;41.70;;;22.65;;
47860;SDS011;33620;52.340;5.984;2023-01-29T09:40:30;38.88;;;22.80;;
47860;SDS011;33620;52.340;5.984;2023-01-29T09:42:59;39.72;;;22.45;;
47860;SDS011;33620;52.340;5.984;2023-01-29T09:45:31;36.88;;;22.77;;
47860;SDS011;33620;52.340;5.984;2023-01-29T09:48:00;38.72;;;23.33;;
47860;SDS011;33620;52.340;5.984;2023-01-29T09:50:37;40.75;;;22.25;;
47860;SDS011;33620;52.340;5.984;2023-01-29T09:56:03;41.42;;;23.15;;
47860;SDS011;33620;52.340;5.984;2023-01-29T09:58:39;40.50;;;21.55;;
47860;SDS011;33620;52.340;5.984;2023-01-29T10:17:43;37.25;;;21.45;;
47860;SDS011;33620;52.340;5.984;2023-01-29T10:20:24;36.22;;;20.98;;
47860;SDS011;33620;52.340;5.984;2023-01-29T10:25:54;38.90;;;23.17;;
47860;SDS011;33620;52.340;5.984;2023-01-29T10:28:22;33.97;;;20.30;;
47860;SDS011;33620;52.340;5.984;2023-01-29T10:31:03;35.35;;;21.02;;
47860;SDS011;33620;52.340;5.984;2023-01-29T10:33:53;35.90;;;21.05;;
47860;SDS011;33620;52.340;5.984;2023-01-29T10:36:21;37.63;;;21.17;;
47860;SDS011;33620;52.340;5.984;2023-01-29T10:39:22;35.70;;;19.98;;
47860;SDS011;33620;52.340;5.984;2023-01-29T10:50:20;37.80;;;21.73;;
47860;SDS011;33620;52.340;5.984;2023-01-29T10:53:23;39.03;;;22.30;;
47860;SDS011;33620;52.340;5.984;2023-01-29T10:56:20;38.70;;;23.13;;
47860;SDS011;33620;52.340;5.984;2023-01-29T10:59:00;37.42;;;21.92;;
47860;SDS011;33620;52.340;5.984;2023-01-29T11:01:48;38.60;;;21.52;;
47860;SDS011;33620;52.340;5.984;2023-01-29T11:04:21;40.75;;;23.58;;
47860;SDS011;33620;52.340;5.984;2023-01-29T11:06:53;37.83;;;20.30;;
47860;SDS011;33620;52.340;5.984;2023-01-29T11:11:59;40.03;;;22.58;;
47860;SDS011;33620;52.340;5.984;2023-01-29T11:17:18;37.90;;;20.67;;
47860;SDS011;33620;52.340;5.984;2023-01-29T11:19:47;38.13;;;22.15;;
47860;SDS011;33620;52.340;5.984;2023-01-29T11:22:19;37.95;;;21.63;;
47860;SDS011;33620;52.340;5.984;2023-01-29T11:27:42;42.60;;;23.00;;
47860;SDS011;33620;52.340;5.984;2023-01-29T11:30:27;37.00;;;20.95;;
47860;SDS011;33620;52.340;5.984;2023-01-29T11:33:05;37.55;;;21.40;;
47860;SDS011;33620;52.340;5.984;2023-01-29T11:35:34;40.67;;;22.02;;
47860;SDS011;33620;52.340;5.984;2023-01-29T11:38:08;39.10;;;20.90;;
47860;SDS011;33620;52.340;5.984;2023-01-29T11:40:53;38.33;;;21.92;;
47860;SDS011;33620;52.340;5.984;2023-01-29T11:43:30;39.75;;;21.48;;
47860;SDS011;33620;52.340;5.984;2023-01-29T11:45:58;39.03;;;23.33;;
47860;SDS011;33620;52.340;5.984;2023-01-29T11:48:38;43.67;;;22.25;;
47860;SDS011;33620;52.340;5.984;2023-01-29T11:51:21;40.28;;;23.02;;
47860;SDS011;33620;52.340;5.984;2023-01-29T11:54:09;39.67;;;21.15;;
47860;SDS011;33620;52.340;5.984;2023-01-29T11:56:42;39.92;;;22.17;;
47860;SDS011;33620;52.340;5.984;2023-01-29T11:59:23;41.78;;;23.70;;
47860;SDS011;33620;52.340;5.984;2023-01-29T12:02:02;42.17;;;22.75;;
47860;SDS011;33620;52.340;5.984;2023-01-29T12:04:38;39.72;;;23.42;;
47860;SDS011;33620;52.340;5.984;2023-01-29T12:07:09;42.72;;;23.77;;
47860;SDS011;33620;52.340;5.984;2023-01-29T12:09:38;41.05;;;23.80;;
47860;SDS011;33620;52.340;5.984;2023-01-29T12:12:16;41.90;;;25.00;;
47860;SDS011;33620;52.340;5.984;2023-01-29T12:15:02;43.63;;;24.40;;
47860;SDS011;33620;52.340;5.984;2023-01-29T12:17:51;42.63;;;25.45;;
47860;SDS011;33620;52.340;5.984;2023-01-29T12:20:29;42.17;;;25.38;;
47860;SDS011;33620;52.340;5.984;2023-01-29T12:26:07;43.50;;;24.60;;
47860;SDS011;33620;52.340;5.984;2023-01-29T12:28:49;44.80;;;25.25;;
47860;SDS011;33620;52.340;5.984;2023-01-29T12:36:59;49.55;;;28.45;;
47860;SDS011;33620;52.340;5.984;2023-01-29T12:39:53;48.05;;;27.60;;
47860;SDS011;33620;52.340;5.984;2023-01-29T12:42:25;44.47;;;23.60;;
47860;SDS011;33620;52.340;5.984;2023-01-29T12:44:53;45.75;;;25.67;;
47860;SDS011;33620;52.340;5.984;2023-01-29T12:47:31;46.40;;;26.70;;
47860;SDS011;33620;52.340;5.984;2023-01-29T12:50:47;49.95;;;28.85;;
47860;SDS011;33620;52.340;5.984;2023-01-29T12:53:11;47.17;;;27.27;;
47860;SDS011;33620;52.340;5.984;2023-01-29T12:59:15;50.22;;;29.23;;
47860;SDS011;33620;52.340;5.984;2023-01-29T13:01:51;52.03;;;30.05;;
47860;SDS011;33620;52.340;5.984;2023-01-29T13:04:35;49.35;;;28.65;;
47860;SDS011;33620;52.340;5.984;2023-01-29T13:10:16;52.70;;;30.80;;
47860;SDS011;33620;52.340;5.984;2023-01-29T13:13:04;49.58;;;27.13;;
47860;SDS011;33620;52.340;5.984;2023-01-29T13:15:43;50.92;;;29.70;;
47860;SDS011;33620;52.340;5.984;2023-01-29T13:20:59;51.38;;;30.27;;
47860;SDS011;33620;52.340;5.984;2023-01-29T13:23:32;54.75;;;31.27;;
47860;SDS011;33620;52.340;5.984;2023-01-29T13:26:06;54.88;;;31.20;;
47860;SDS011;33620;52.340;5.984;2023-01-29T13:28:34;52.85;;;29.27;;
47860;SDS011;33620;52.340;5.984;2023-01-29T13:36:51;53.55;;;32.25;;
47860;SDS011;33620;52.340;5.984;2023-01-29T13:39:37;53.83;;;31.88;;
47860;SDS011;33620;52.340;5.984;2023-01-29T13:42:16;63.00;;;33.45;;
47860;SDS011;33620;52.340;5.984;2023-01-29T13:44:53;54.38;;;31.90;;
47860;SDS011;33620;52.340;5.984;2023-01-29T13:47:28;53.78;;;32.15;;
47860;SDS011;33620;52.340;5.984;2023-01-29T13:50:06;54.65;;;33.45;;
47860;SDS011;33620;52.340;5.984;2023-01-29T13:53:01;58.03;;;33.28;;
47860;SDS011;33620;52.340;5.984;2023-01-29T13:57:59;53.30;;;31.70;;
47860;SDS011;33620;52.340;5.984;2023-01-29T14:10:42;52.55;;;30.95;;
47860;SDS011;33620;52.340;5.984;2023-01-29T14:18:22;50.55;;;27.30;;
47860;SDS011;33620;52.340;5.984;2023-01-29T14:20:56;51.40;;;29.08;;
47860;SDS011;33620;52.340;5.984;2023-01-29T14:23:35;57.88;;;31.50;;
47860;SDS011;33620;52.340;5.984;2023-01-29T14:26:40;51.47;;;31.23;;
47860;SDS011;33620;52.340;5.984;2023-01-29T14:31:51;52.33;;;30.38;;
47860;SDS011;33620;52.340;5.984;2023-01-29T14:37:21;52.88;;;31.77;;
47860;SDS011;33620;52.340;5.984;2023-01-29T14:45:29;51.25;;;28.95;;
47860;SDS011;33620;52.340;5.984;2023-01-29T14:48:03;53.92;;;31.40;;
47860;SDS011;33620;52.340;5.984;2023-01-29T14:53:00;52.75;;;30.35;;
47860;SDS011;33620;52.340;5.984;2023-01-29T14:55:38;57.85;;;30.15;;
47860;SDS011;33620;52.340;5.984;2023-01-29T14:58:12;53.35;;;30.27;;
47860;SDS011;33620;52.340;5.984;2023-01-29T15:00:48;55.47;;;31.13;;
47860;SDS011;33620;52.340;5.984;2023-01-29T15:06:04;52.22;;;28.95;;
47860;SDS011;33620;52.340;5.984;2023-01-29T15:08:36;52.60;;;31.75;;
47860;SDS011;33620;52.340;5.984;2023-01-29T15:11:11;55.25;;;32.17;;
47860;SDS011;33620;52.340;5.984;2023-01-29T15:19:33;57.97;;;31.10;;
47860;SDS011;33620;52.340;5.984;2023-01-29T15:22:11;49.03;;;28.40;;
47860;SDS011;33620;52.340;5.984;2023-01-29T15:24:40;49.97;;;28.58;;
47860;SDS011;33620;52.340;5.984;2023-01-29T15:27:17;52.15;;;29.23;;
47860;SDS011;33620;52.340;5.984;2023-01-29T15:29:55;46.90;;;27.55;;
47860;SDS011;33620;52.340;5.984;2023-01-29T15:32:26;49.67;;;29.83;;
47860;SDS011;33620;52.340;5.984;2023-01-29T15:34:57;52.25;;;30.52;;
47860;SDS011;33620;52.340;5.984;2023-01-29T15:37:25;50.45;;;28.95;;
47860;SDS011;33620;52.340;5.984;2023-01-29T15:39:52;47.28;;;27.42;;
47860;SDS011;33620;52.340;5.984;2023-01-29T15:42:18;49.85;;;29.00;;
47860;SDS011;33620;52.340;5.984;2023-01-29T15:44:49;50.00;;;27.45;;
47860;SDS011;33620;52.340;5.984;2023-01-29T15:47:15;47.65;;;28.38;;
47860;SDS011;33620;52.340;5.984;2023-01-29T15:49:40;51.35;;;28.73;;
47860;SDS011;33620;52.340;5.984;2023-01-29T15:52:07;53.65;;;28.83;;
47860;SDS011;33620;52.340;5.984;2023-01-29T15:54:39;47.80;;;27.23;;
47860;SDS011;33620;52.340;5.984;2023-01-29T15:57:05;50.80;;;28.38;;
47860;SDS011;33620;52.340;5.984;2023-01-29T15:59:40;52.85;;;29.52;;
47860;SDS011;33620;52.340;5.984;2023-01-29T16:04:58;45.85;;;27.40;;
47860;SDS011;33620;52.340;5.984;2023-01-29T16:07:24;50.45;;;29.23;;
47860;SDS011;33620;52.340;5.984;2023-01-29T16:09:50;48.85;;;23.73;;
47860;SDS011;33620;52.340;5.984;2023-01-29T16:12:16;51.58;;;28.40;;
47860;SDS011;33620;52.340;5.984;2023-01-29T16:14:42;48.75;;;28.70;;
47860;SDS011;33620;52.340;5.984;2023-01-29T16:17:29;49.92;;;29.23;;
47860;SDS011;33620;52.340;5.984;2023-01-29T16:20:00;51.45;;;29.17;;
47860;SDS011;33620;52.340;5.984;2023-01-29T16:22:29;50.15;;;30.60;;
47860;SDS011;33620;52.340;5.984;2023-01-29T16:25:07;51.70;;;29.65;;
47860;SDS011;33620;52.340;5.984;2023-01-29T16:27:38;53.92;;;29.85;;
47860;SDS011;33620;52.340;5.984;2023-01-29T16:30:07;55.33;;;31.50;;
47860;SDS011;33620;52.340;5.984;2023-01-29T16:32:34;53.72;;;30.27;;
47860;SDS011;33620;52.340;5.984;2023-01-29T16:35:00;53.88;;;29.35;;
47860;SDS011;33620;52.340;5.984;2023-01-29T16:39:51;52.90;;;29.23;;
47860;SDS011;33620;52.340;5.984;2023-01-29T16:47:35;54.00;;;30.60;;
47860;SDS011;33620;52.340;5.984;2023-01-29T16:52:53;58.78;;;31.73;;
47860;SDS011;33620;52.340;5.984;2023-01-29T16:55:25;56.85;;;32.42;;
47860;SDS011;33620;52.340;5.984;2023-01-29T16:57:56;55.40;;;32.72;;
47860;SDS011;33620;52.340;5.984;2023-01-29T17:02:49;57.97;;;33.15;;
47860;SDS011;33620;52.340;5.984;2023-01-29T17:05:20;56.40;;;33.28;;
47860;SDS011;33620;52.340;5.984;2023-01-29T17:07:56;60.28;;;32.22;;
47860;SDS011;33620;52.340;5.984;2023-01-29T17:10:23;58.40;;;33.17;;
47860;SDS011;33620;52.340;5.984;2023-01-29T17:12:52;57.47;;;33.97;;
47860;SDS011;33620;52.340;5.984;2023-01-29T17:15:33;56.10;;;31.17;;
47860;SDS011;33620;52.340;5.984;2023-01-29T17:17:59;56.25;;;30.67;;
47860;SDS011;33620;52.340;5.984;2023-01-29T17:20:25;58.20;;;33.08;;
47860;SDS011;33620;52.340;5.984;2023-01-29T17:22:51;60.53;;;33.35;;
47860;SDS011;33620;52.340;5.984;2023-01-29T17:25:16;58.30;;;33.03;;
47860;SDS011;33620;52.340;5.984;2023-01-29T17:27:42;62.50;;;33.03;;
47860;SDS011;33620;52.340;5.984;2023-01-29T17:30:15;59.88;;;33.45;;
47860;SDS011;33620;52.340;5.984;2023-01-29T17:32:42;55.90;;;30.27;;
47860;SDS011;33620;52.340;5.984;2023-01-29T17:35:10;57.45;;;31.80;;
47860;SDS011;33620;52.340;5.984;2023-01-29T17:37:37;60.35;;;33.60;;
47860;SDS011;33620;52.340;5.984;2023-01-29T17:40:05;51.63;;;26.83;;
47860;SDS011;33620;52.340;5.984;2023-01-29T17:42:39;63.17;;;33.55;;